createdAt,value
2023-04-18T00:00:05.593Z,7.00
2023-04-18T00:02:55.283Z,7.10
2023-04-18T00:05:23.206Z,6.68
2023-04-18T00:07:51.496Z,6.65
2023-04-18T00:10:19.149Z,6.95
2023-04-18T00:12:46.481Z,7.28
2023-04-18T00:15:14.222Z,6.85
2023-04-18T00:18:18.618Z,8.00
2023-04-18T00:20:47.033Z,8.15
2023-04-18T00:23:14.938Z,7.78
2023-04-18T00:25:42.460Z,8.45
2023-04-18T00:28:10.007Z,8.02
2023-04-18T00:30:37.772Z,7.90
2023-04-18T00:33:05.549Z,7.55
2023-04-18T00:35:33.232Z,7.50
2023-04-18T00:38:00.473Z,8.48
2023-04-18T00:40:27.995Z,9.20
2023-04-18T00:42:55.833Z,8.57
2023-04-18T00:45:23.393Z,9.40
2023-04-18T00:47:50.736Z,7.20
2023-04-18T00:50:19.811Z,7.30
2023-04-18T00:52:48.008Z,7.60
2023-04-18T00:55:16.631Z,6.95
2023-04-18T00:57:44.050Z,7.47
2023-04-18T01:00:12.596Z,7.10
2023-04-18T01:02:40.717Z,6.70
2023-04-18T01:05:08.894Z,7.18
2023-04-18T01:07:41.794Z,6.57
2023-04-18T01:10:11.288Z,6.82
2023-04-18T01:12:38.700Z,7.57
2023-04-18T01:15:07.702Z,6.20
2023-04-18T01:17:35.599Z,7.47
2023-04-18T01:24:31.984Z,6.82
2023-04-18T01:26:59.544Z,6.70
2023-04-18T01:29:27.100Z,6.35
2023-04-18T01:31:54.351Z,7.22
2023-04-18T01:34:21.899Z,6.85
2023-04-18T01:36:49.319Z,7.07
2023-04-18T01:39:18.414Z,7.03
2023-04-18T01:41:45.847Z,7.30
2023-04-18T01:44:13.644Z,6.70
2023-04-18T01:46:41.165Z,6.78
2023-04-18T01:49:09.955Z,6.07
2023-04-18T01:51:39.023Z,6.88
2023-04-18T01:54:06.574Z,6.90
2023-04-18T01:56:33.818Z,5.82
2023-04-18T01:59:01.367Z,6.00
2023-04-18T02:01:28.580Z,6.93
2023-04-18T02:03:56.296Z,6.75
2023-04-18T02:06:23.648Z,6.03
2023-04-18T02:08:51.144Z,6.88
2023-04-18T02:11:18.437Z,7.00
2023-04-18T02:13:46.000Z,6.70
2023-04-18T02:16:14.061Z,7.53
2023-04-18T02:18:43.716Z,5.80
2023-04-18T02:21:11.334Z,6.63
2023-04-18T02:23:38.872Z,6.93
2023-04-18T02:26:06.677Z,7.55
2023-04-18T02:28:34.389Z,6.40
2023-04-18T02:31:01.689Z,8.10
2023-04-18T02:33:29.313Z,8.05
2023-04-18T02:35:56.580Z,7.68
2023-04-18T02:38:24.149Z,6.55
2023-04-18T02:40:51.461Z,7.00
2023-04-18T02:43:18.984Z,6.80
2023-04-18T02:45:46.293Z,7.55
2023-04-18T02:48:13.840Z,7.53
2023-04-18T02:50:41.202Z,7.25
2023-04-18T02:53:08.888Z,6.53
2023-04-18T02:55:37.291Z,6.88
2023-04-18T02:58:05.012Z,7.15
2023-04-18T03:00:32.334Z,7.70
2023-04-18T03:03:00.026Z,7.00
2023-04-18T03:05:27.429Z,6.55
2023-04-18T03:07:54.942Z,7.22
2023-04-18T03:10:22.235Z,6.20
2023-04-18T03:12:49.778Z,5.78
2023-04-18T03:15:17.105Z,5.80
2023-04-18T03:17:44.758Z,6.38
2023-04-18T03:20:12.852Z,6.18
2023-04-18T03:22:40.404Z,6.88
2023-04-18T03:25:08.516Z,7.20
2023-04-18T03:27:36.116Z,7.13
2023-04-18T03:30:03.920Z,7.50
2023-04-18T03:32:34.096Z,7.57
2023-04-18T03:35:01.484Z,7.55
2023-04-18T03:37:29.259Z,6.80
2023-04-18T03:39:56.473Z,7.28
2023-04-18T03:42:24.279Z,6.90
2023-04-18T03:44:51.507Z,7.45
2023-04-18T03:47:19.060Z,8.45
2023-04-18T03:49:46.270Z,8.70
2023-04-18T03:52:13.851Z,8.38
2023-04-18T03:54:41.083Z,9.02
2023-04-18T03:57:08.624Z,9.50
2023-04-18T03:59:36.132Z,9.80
2023-04-18T04:02:03.871Z,9.70
2023-04-18T04:04:31.456Z,8.65
2023-04-18T04:06:59.787Z,10.18
2023-04-18T04:09:27.199Z,10.63
2023-04-18T04:11:54.741Z,10.55
2023-04-18T04:14:22.908Z,10.88
2023-04-18T04:16:51.773Z,11.80
2023-04-18T04:19:19.152Z,12.05
2023-04-18T04:21:46.641Z,11.43
2023-04-18T04:24:14.119Z,12.75
2023-04-18T04:26:43.342Z,12.85
2023-04-18T04:29:10.936Z,12.30
2023-04-18T04:31:38.480Z,12.38
2023-04-18T04:34:06.336Z,13.63
2023-04-18T04:36:33.851Z,14.82
2023-04-18T04:39:04.272Z,14.32
2023-04-18T04:41:31.786Z,14.38
2023-04-18T04:43:59.711Z,15.27
2023-04-18T04:46:30.372Z,13.85
2023-04-18T04:48:57.777Z,12.60
2023-04-18T04:51:25.926Z,13.27
2023-04-18T04:53:53.127Z,13.90
2023-04-18T04:56:20.725Z,14.55
2023-04-18T04:58:48.042Z,15.35
2023-04-18T05:01:16.933Z,15.27
2023-04-18T05:03:44.400Z,15.15
2023-04-18T05:06:12.453Z,13.77
2023-04-18T05:08:39.835Z,14.52
2023-04-18T05:11:07.337Z,13.98
2023-04-18T05:13:34.636Z,14.90
2023-04-18T05:16:02.927Z,15.10
2023-04-18T05:18:30.174Z,13.45
2023-04-18T05:20:57.776Z,11.88
2023-04-18T05:23:25.086Z,13.20
2023-04-18T05:25:53.022Z,11.98
2023-04-18T05:28:20.353Z,13.32
2023-04-18T05:30:47.948Z,11.98
2023-04-18T05:33:15.352Z,12.55
2023-04-18T05:35:42.936Z,12.65
2023-04-18T05:38:10.404Z,12.18
2023-04-18T05:40:38.033Z,12.32
2023-04-18T05:43:05.591Z,12.73
2023-04-18T05:45:33.124Z,13.45
2023-04-18T05:48:00.590Z,12.13
2023-04-18T05:50:28.145Z,12.77
2023-04-18T05:52:55.454Z,12.13
2023-04-18T05:55:22.931Z,12.05
2023-04-18T05:57:50.221Z,11.65
2023-04-18T06:00:18.771Z,11.75
2023-04-18T06:02:46.526Z,12.05
2023-04-18T06:05:14.534Z,12.68
2023-04-18T06:07:41.941Z,12.80
2023-04-18T06:10:13.408Z,15.27
2023-04-18T06:12:40.957Z,11.35
2023-04-18T06:15:09.811Z,11.82
2023-04-18T06:17:37.802Z,11.85
2023-04-18T06:20:06.449Z,12.45
2023-04-18T06:22:34.856Z,11.50
2023-04-18T06:25:02.485Z,14.60
2023-04-18T06:27:31.508Z,11.95
2023-04-18T06:29:59.672Z,11.07
2023-04-18T06:32:27.404Z,11.00
2023-04-18T06:34:55.053Z,11.95
2023-04-18T06:37:22.544Z,11.18
2023-04-18T06:39:50.084Z,10.43
2023-04-18T06:42:17.706Z,11.40
2023-04-18T06:44:46.003Z,11.23
2023-04-18T06:47:13.315Z,10.10
2023-04-18T06:49:41.513Z,10.35
2023-04-18T06:52:09.134Z,11.45
2023-04-18T06:54:36.645Z,15.45
2023-04-18T06:57:04.274Z,11.20
2023-04-18T06:59:31.829Z,10.77
2023-04-18T07:01:59.077Z,11.55
2023-04-18T07:04:27.064Z,11.80
2023-04-18T07:06:54.515Z,11.40
2023-04-18T07:09:22.874Z,10.00
2023-04-18T07:11:51.850Z,10.45
2023-04-18T07:14:24.794Z,10.00
2023-04-18T07:16:52.374Z,9.95
2023-04-18T07:19:20.086Z,9.52
2023-04-18T07:21:47.410Z,9.55
2023-04-18T07:24:15.125Z,9.68
2023-04-18T07:26:42.543Z,8.63
2023-04-18T07:29:10.098Z,9.23
2023-04-18T07:31:37.431Z,9.25
2023-04-18T07:34:04.963Z,9.35
2023-04-18T07:36:32.703Z,9.43
2023-04-18T07:39:02.083Z,12.48
2023-04-18T07:41:29.376Z,9.38
2023-04-18T07:43:56.996Z,11.57
2023-04-18T07:46:24.437Z,9.05
2023-04-18T07:48:53.369Z,8.57
2023-04-18T07:51:21.827Z,8.32
2023-04-18T07:53:49.328Z,8.90
2023-04-18T07:56:16.565Z,8.00
2023-04-18T07:58:44.173Z,8.02
2023-04-18T08:01:14.490Z,10.02
2023-04-18T08:03:42.276Z,9.10
2023-04-18T08:06:10.564Z,7.55
2023-04-18T08:08:38.162Z,8.20
2023-04-18T08:11:05.532Z,8.07
2023-04-18T08:13:33.338Z,7.30
2023-04-18T08:16:02.415Z,7.38
2023-04-18T08:18:30.034Z,7.57
2023-04-18T08:20:57.440Z,6.85
2023-04-18T08:23:24.955Z,7.35
2023-04-18T08:25:52.191Z,7.57
2023-04-18T08:28:19.766Z,6.80
2023-04-18T08:30:50.467Z,6.82
2023-04-18T08:33:19.025Z,7.07
2023-04-18T08:35:46.266Z,6.18
2023-04-18T08:38:13.813Z,5.97
2023-04-18T08:40:41.078Z,6.53
2023-04-18T08:43:12.781Z,6.22
2023-04-18T08:45:44.391Z,5.80
2023-04-18T08:48:17.534Z,5.65
2023-04-18T08:50:45.601Z,5.63
2023-04-18T08:53:13.737Z,5.53
2023-04-18T08:55:42.113Z,4.80
2023-04-18T08:58:12.540Z,5.15
2023-04-18T09:00:39.895Z,4.97
2023-04-18T09:03:07.674Z,4.60
2023-04-18T09:05:35.723Z,5.05
2023-04-18T09:08:26.114Z,4.82
2023-04-18T09:10:53.384Z,4.82
2023-04-18T09:13:39.709Z,7.15
2023-04-18T09:16:07.323Z,6.25
2023-04-18T09:18:35.333Z,7.10
2023-04-18T09:21:21.522Z,4.68
2023-04-18T09:23:50.455Z,4.25
2023-04-18T09:26:36.271Z,3.60
2023-04-18T09:29:05.293Z,3.90
2023-04-18T09:31:32.710Z,4.65
2023-04-18T09:34:03.111Z,4.05
2023-04-18T09:36:32.408Z,4.32
2023-04-18T09:39:00.413Z,4.30
2023-04-18T09:41:27.976Z,4.20
2023-04-18T09:44:21.832Z,3.75
2023-04-18T09:46:51.128Z,4.43
2023-04-18T09:49:19.162Z,4.10
2023-04-18T09:51:47.109Z,9.02
2023-04-18T09:54:17.162Z,4.38
2023-04-18T09:56:46.074Z,3.97
2023-04-18T09:59:54.105Z,3.35
2023-04-18T10:02:25.148Z,3.60
2023-04-18T10:04:54.435Z,3.67
2023-04-18T10:07:23.847Z,3.90
2023-04-18T10:09:52.548Z,3.35
2023-04-18T10:12:20.232Z,3.30
2023-04-18T10:14:48.208Z,3.17
2023-04-18T10:17:16.230Z,3.17
2023-04-18T10:19:46.149Z,3.35
2023-04-18T10:22:13.506Z,3.35
2023-04-18T10:24:53.718Z,3.45
2023-04-18T10:27:49.207Z,3.00
2023-04-18T10:30:18.585Z,3.30
2023-04-18T10:32:48.838Z,3.20
2023-04-18T10:35:16.419Z,3.22
2023-04-18T10:37:59.610Z,3.42
2023-04-18T10:40:34.747Z,2.78
2023-04-18T10:43:02.271Z,3.17
2023-04-18T10:45:36.344Z,3.53
2023-04-18T10:48:27.692Z,3.35
2023-04-18T10:51:18.684Z,3.40
2023-04-18T10:53:54.545Z,3.50
2023-04-18T10:56:22.442Z,4.20
2023-04-18T10:58:53.856Z,5.65
2023-04-18T11:01:32.388Z,3.35
2023-04-18T11:04:10.983Z,3.58
2023-04-18T11:06:53.240Z,3.47
2023-04-18T11:09:20.872Z,3.13
2023-04-18T11:12:10.613Z,3.30
2023-04-18T11:14:49.960Z,2.92
2023-04-18T11:17:17.926Z,3.42
2023-04-18T11:19:45.711Z,3.28
2023-04-18T11:22:14.557Z,3.30
2023-04-18T11:24:43.131Z,3.53
2023-04-18T11:27:12.295Z,3.35
2023-04-18T11:29:39.639Z,3.72
2023-04-18T11:32:09.595Z,3.40
2023-04-18T11:34:36.970Z,3.28
2023-04-18T11:37:08.483Z,4.55
2023-04-18T11:39:46.840Z,3.40
2023-04-18T11:42:14.492Z,3.10
2023-04-18T11:44:46.907Z,2.88
2023-04-18T11:47:31.703Z,3.25
2023-04-18T11:50:02.828Z,4.97
2023-04-18T11:52:33.074Z,3.75
2023-04-18T11:55:21.892Z,3.70
2023-04-18T11:58:01.177Z,4.07
2023-04-18T12:00:38.565Z,4.07
2023-04-18T12:03:18.989Z,3.40
2023-04-18T12:05:46.809Z,3.80
2023-04-18T12:08:21.348Z,3.67
2023-04-18T12:10:51.447Z,5.55
2023-04-18T12:13:26.197Z,4.70
2023-04-18T12:15:54.458Z,3.40
2023-04-18T12:18:24.785Z,3.45
2023-04-18T12:20:54.540Z,3.67
2023-04-18T12:23:40.440Z,5.88
2023-04-18T12:26:14.585Z,3.90
2023-04-18T12:28:46.292Z,4.00
2023-04-18T12:31:13.621Z,3.40
2023-04-18T12:33:41.158Z,3.40
2023-04-18T12:36:10.048Z,3.70
2023-04-18T12:38:37.579Z,3.13
2023-04-18T12:41:05.573Z,3.58
2023-04-18T12:43:33.157Z,3.22
2023-04-18T12:46:00.468Z,3.42
2023-04-18T12:48:28.447Z,4.80
2023-04-18T12:50:55.825Z,3.80
2023-04-18T12:53:23.321Z,3.33
2023-04-18T12:55:51.024Z,3.22
2023-04-18T12:58:18.916Z,3.15
2023-04-18T13:00:46.519Z,2.55
2023-04-18T13:03:14.277Z,3.10
2023-04-18T13:05:41.749Z,2.97
2023-04-18T13:08:16.946Z,2.83
2023-04-18T13:10:48.408Z,2.33
2023-04-18T13:13:16.203Z,3.10
2023-04-18T13:15:43.542Z,7.85
2023-04-18T13:18:11.184Z,3.50
2023-04-18T13:20:38.382Z,2.60
2023-04-18T13:23:05.977Z,5.22
2023-04-18T13:25:33.287Z,3.33
2023-04-18T13:28:01.240Z,3.22
2023-04-18T13:30:28.685Z,2.92
2023-04-18T13:32:56.985Z,2.47
2023-04-18T13:35:24.258Z,7.30
2023-04-18T13:37:51.872Z,3.88
2023-04-18T13:40:19.172Z,3.00
2023-04-18T13:42:46.646Z,2.83
2023-04-18T13:45:32.537Z,3.33
2023-04-18T13:48:00.108Z,2.70
2023-04-18T13:50:27.432Z,2.83
2023-04-18T13:52:55.004Z,2.80
2023-04-18T13:55:22.332Z,2.65
2023-04-18T13:57:49.921Z,3.20
2023-04-18T14:00:19.173Z,2.70
2023-04-18T14:02:46.858Z,2.70
2023-04-18T14:05:14.224Z,2.72
2023-04-18T14:07:42.026Z,3.17
2023-04-18T14:10:10.006Z,4.07
2023-04-18T14:12:37.679Z,4.75
2023-04-18T14:15:05.827Z,5.03
2023-04-18T14:17:34.052Z,4.22
2023-04-18T14:20:01.872Z,3.80
2023-04-18T14:22:31.214Z,3.80
2023-04-18T14:24:58.631Z,3.72
2023-04-18T14:27:26.586Z,3.78
2023-04-18T14:29:53.953Z,6.50
2023-04-18T14:32:21.520Z,6.40
2023-04-18T14:34:48.810Z,4.00
2023-04-18T14:37:17.686Z,3.83
2023-04-18T14:39:45.118Z,3.92
2023-04-18T14:42:12.639Z,4.20
2023-04-18T14:44:40.188Z,4.13
2023-04-18T14:47:07.927Z,3.70
2023-04-18T14:49:35.480Z,3.60
2023-04-18T14:52:03.076Z,3.72
2023-04-18T14:54:32.488Z,3.65
2023-04-18T14:57:01.244Z,3.67
2023-04-18T14:59:28.916Z,3.30
2023-04-18T15:01:56.535Z,3.60
2023-04-18T15:04:23.965Z,3.53
2023-04-18T15:06:51.825Z,3.85
2023-04-18T15:09:19.096Z,3.63
2023-04-18T15:11:46.722Z,3.53
2023-04-18T15:14:14.184Z,3.30
2023-04-18T15:16:41.938Z,4.70
2023-04-18T15:19:09.228Z,4.38
2023-04-18T15:21:36.869Z,4.18
2023-04-18T15:24:04.233Z,3.75
2023-04-18T15:26:33.241Z,3.90
2023-04-18T15:29:03.767Z,3.95
2023-04-18T15:31:31.491Z,4.15
2023-04-18T15:33:59.026Z,4.38
2023-04-18T15:36:27.767Z,4.30
2023-04-18T15:38:55.112Z,3.88
2023-04-18T15:41:23.341Z,5.63
2023-04-18T15:43:52.712Z,4.95
2023-04-18T15:46:20.394Z,4.55
2023-04-18T15:48:47.713Z,4.30
2023-04-18T15:51:15.402Z,4.75
2023-04-18T15:53:42.640Z,4.70
2023-04-18T15:56:10.296Z,4.70
2023-04-18T15:58:37.634Z,5.40
2023-04-18T16:01:06.089Z,4.78
2023-04-18T16:03:33.585Z,4.28
2023-04-18T16:06:04.608Z,4.75
2023-04-18T16:08:33.268Z,4.68
2023-04-18T16:11:01.124Z,4.90
2023-04-18T16:13:28.308Z,5.00
2023-04-18T16:15:56.017Z,4.88
2023-04-18T16:18:23.337Z,4.85
2023-04-18T16:20:51.884Z,4.97
2023-04-18T16:23:20.629Z,5.05
2023-04-18T16:25:48.596Z,7.60
2023-04-18T16:28:15.988Z,7.40
2023-04-18T16:30:45.727Z,5.93
2023-04-18T16:33:13.039Z,5.10
2023-04-18T16:35:40.728Z,6.35
2023-04-18T16:38:08.024Z,6.07
2023-04-18T16:40:35.775Z,5.97
2023-04-18T16:43:03.115Z,6.65
2023-04-18T16:45:30.623Z,5.93
2023-04-18T16:47:58.070Z,5.60
2023-04-18T16:50:26.374Z,6.35
2023-04-18T16:52:53.734Z,6.70
2023-04-18T16:55:21.648Z,8.43
2023-04-18T16:57:48.960Z,8.02
2023-04-18T17:00:16.838Z,7.53
2023-04-18T17:02:49.565Z,7.68
2023-04-18T17:05:18.750Z,7.32
2023-04-18T17:07:47.876Z,7.07
2023-04-18T17:10:15.711Z,7.05
2023-04-18T17:12:42.990Z,6.90
2023-04-18T17:15:11.171Z,7.75
2023-04-18T17:17:38.493Z,7.18
2023-04-18T17:20:09.941Z,7.15
2023-04-18T17:22:37.322Z,8.10
2023-04-18T17:25:06.187Z,7.78
2023-04-18T17:27:33.800Z,9.48
2023-04-18T17:30:01.408Z,8.75
2023-04-18T17:32:28.931Z,9.70
2023-04-18T17:34:56.607Z,9.25
2023-04-18T17:37:24.087Z,8.45
2023-04-18T17:39:54.640Z,10.40
2023-04-18T17:42:21.962Z,9.32
2023-04-18T17:44:49.651Z,9.45
2023-04-18T17:47:18.573Z,9.50
2023-04-18T17:49:46.495Z,9.93
2023-04-18T17:52:13.769Z,9.45
2023-04-18T17:54:41.855Z,10.40
2023-04-18T17:57:09.142Z,11.18
2023-04-18T17:59:37.883Z,9.82
2023-04-18T18:02:05.973Z,8.15
2023-04-18T18:04:33.694Z,9.80
2023-04-18T18:07:01.638Z,9.43
2023-04-18T18:09:29.758Z,9.98
2023-04-18T18:11:58.722Z,9.45
2023-04-18T18:14:27.962Z,9.57
2023-04-18T18:16:55.583Z,10.35
2023-04-18T18:19:23.269Z,9.27
2023-04-18T18:21:50.778Z,10.18
2023-04-18T18:24:18.875Z,10.20
2023-04-18T18:26:46.223Z,9.77
2023-04-18T18:29:14.093Z,9.70
2023-04-18T18:31:42.478Z,9.52
2023-04-18T18:34:10.241Z,10.43
2023-04-18T18:36:38.066Z,9.15
2023-04-18T18:39:05.901Z,10.00
2023-04-18T18:41:33.721Z,11.77
2023-04-18T18:44:01.488Z,11.63
2023-04-18T18:46:28.854Z,10.48
2023-04-18T18:48:56.495Z,11.02
2023-04-18T18:51:23.932Z,10.93
2023-04-18T18:53:51.424Z,11.02
2023-04-18T18:56:18.758Z,10.02
2023-04-18T18:58:46.403Z,11.32
2023-04-18T19:01:13.894Z,10.88
2023-04-18T19:03:41.574Z,12.20
2023-04-18T19:06:08.970Z,9.98
2023-04-18T19:08:36.596Z,9.55
2023-04-18T19:11:05.123Z,9.73
2023-04-18T19:13:32.927Z,10.70
2023-04-18T19:16:00.328Z,10.82
2023-04-18T19:18:27.754Z,11.18
2023-04-18T19:20:55.549Z,11.60
2023-04-18T19:23:25.125Z,13.23
2023-04-18T19:25:52.751Z,12.32
2023-04-18T19:28:20.232Z,11.18
2023-04-18T19:30:48.253Z,12.40
2023-04-18T19:33:15.841Z,11.00
2023-04-18T19:35:43.411Z,10.85
2023-04-18T19:38:10.778Z,11.48
2023-04-18T19:40:38.364Z,14.05
2023-04-18T19:43:05.652Z,13.25
2023-04-18T19:45:33.265Z,14.45
2023-04-18T19:48:00.773Z,13.35
2023-04-18T19:50:28.522Z,13.80
2023-04-18T19:52:55.994Z,15.27
2023-04-18T19:55:23.949Z,14.23
2023-04-18T19:57:56.677Z,15.68
2023-04-18T20:00:24.411Z,13.68
2023-04-18T20:02:52.158Z,13.18
2023-04-18T20:05:20.473Z,12.68
2023-04-18T20:07:48.163Z,14.05
2023-04-18T20:10:15.937Z,14.27
2023-04-18T20:12:43.165Z,14.63
2023-04-18T20:15:11.532Z,16.45
2023-04-18T20:17:38.946Z,16.10
2023-04-18T20:20:09.375Z,15.98
2023-04-18T20:22:38.021Z,17.50
2023-04-18T20:25:06.761Z,16.25
2023-04-18T20:27:34.098Z,20.23
2023-04-18T20:30:01.776Z,24.20
2023-04-18T20:32:29.152Z,22.50
2023-04-18T20:34:58.682Z,19.42
2023-04-18T20:37:27.763Z,19.08
2023-04-18T20:39:56.693Z,19.63
2023-04-18T20:42:23.997Z,18.83
2023-04-18T20:44:54.780Z,14.52
2023-04-18T20:47:22.091Z,14.77
2023-04-18T20:49:49.669Z,13.43
2023-04-18T20:52:17.068Z,18.42
2023-04-18T20:54:44.721Z,17.40
2023-04-18T20:57:12.201Z,17.60
2023-04-18T20:59:39.938Z,17.90
2023-04-18T21:02:08.494Z,17.77
2023-04-18T21:04:36.526Z,14.23
2023-04-18T21:07:03.861Z,18.45
2023-04-18T21:09:36.513Z,18.33
2023-04-18T21:12:06.125Z,19.27
2023-04-18T21:14:33.820Z,19.00
2023-04-18T21:17:01.852Z,15.60
2023-04-18T21:19:29.446Z,21.13
2023-04-18T21:21:56.757Z,19.08
2023-04-18T21:24:24.590Z,21.73
2023-04-18T21:26:51.945Z,22.67
2023-04-18T21:29:19.585Z,20.15
2023-04-18T21:31:49.040Z,21.08
2023-04-18T21:34:16.755Z,20.52
2023-04-18T21:36:44.166Z,20.10
2023-04-18T21:39:11.968Z,21.02
2023-04-18T21:41:39.332Z,19.80
2023-04-18T21:44:06.979Z,20.08
2023-04-18T21:46:34.154Z,19.48
2023-04-18T21:49:01.758Z,19.10
2023-04-18T21:51:29.418Z,18.00
2023-04-18T21:53:56.941Z,20.13
2023-04-18T21:56:24.208Z,19.98
2023-04-18T21:58:51.715Z,19.45
2023-04-18T22:01:19.056Z,20.25
2023-04-18T22:03:47.029Z,18.98
2023-04-18T22:06:14.537Z,18.58
2023-04-18T22:08:42.220Z,18.65
2023-04-18T22:11:11.720Z,18.98
2023-04-18T22:13:39.549Z,21.20
2023-04-18T22:16:08.363Z,16.73
2023-04-18T22:18:37.655Z,19.75
2023-04-18T22:21:06.201Z,18.00
2023-04-18T22:23:33.731Z,20.30
2023-04-18T22:26:01.083Z,18.38
2023-04-18T22:28:28.854Z,18.70
2023-04-18T22:30:56.389Z,19.45
2023-04-18T22:33:24.577Z,19.50
2023-04-18T22:35:52.577Z,17.13
2023-04-18T22:38:20.150Z,18.45
2023-04-18T22:40:47.450Z,20.90
2023-04-18T22:43:15.055Z,19.63
2023-04-18T22:45:42.450Z,17.85
2023-04-18T22:48:12.302Z,16.65
2023-04-18T22:50:42.926Z,20.25
2023-04-18T22:53:11.644Z,17.63
2023-04-18T22:55:40.799Z,18.35
2023-04-18T22:58:09.693Z,18.75
2023-04-18T23:00:37.471Z,19.83
2023-04-18T23:03:05.555Z,15.07
2023-04-18T23:05:34.290Z,15.95
2023-04-18T23:08:01.897Z,19.88
2023-04-18T23:10:29.410Z,18.35
2023-04-18T23:12:58.158Z,18.17
2023-04-18T23:15:26.413Z,17.00
2023-04-18T23:17:54.509Z,15.50
2023-04-18T23:20:23.968Z,19.75
2023-04-18T23:22:51.978Z,15.27
2023-04-18T23:25:20.010Z,17.25
2023-04-18T23:27:48.012Z,16.20
2023-04-18T23:30:15.467Z,15.52
2023-04-18T23:32:43.049Z,14.85
2023-04-18T23:35:11.718Z,19.35
2023-04-18T23:37:39.315Z,17.63
2023-04-18T23:40:08.019Z,17.10
2023-04-18T23:42:36.389Z,18.60
2023-04-18T23:45:05.940Z,16.80
2023-04-18T23:47:33.584Z,19.15
2023-04-18T23:50:01.458Z,19.67
2023-04-18T23:52:29.197Z,20.58
2023-04-18T23:55:02.456Z,21.63
2023-04-18T23:57:30.102Z,23.77
2023-04-18T23:59:57.358Z,18.92
